MDW weather

Chicago Midway International Airport
Chicago, Illinois, United States

Public forecast

Using degrees Fahrenheit for public forecast. Weather courtesy of forecast.io.

METAR (pilot weather report)

Retrieved 2017/05/24 23:53 UTC (1 hour ago):

KMDW 242353Z 36011KT 10SM BKN012 OVC032 13/11 A2955 RMK AO2 RAE53 SLP007 P0001 60001 T01280106 10161 20122 51006

TAF (pilot weather forecast)

Forecast is more than 12 hours old.

Retrieved 2017/05/24 00:33 UTC (1 day ago):

TAF KMDW 242330Z 2500/2524 01012G18KT 6SM -SHRA SCT007 BKN025 FM250400 35010KT P6SM SCT007 OVC012 FM251600 35012KT P6SM BKN020 FM252100 02010KT P6SM SCT040